createdAt,value
2018-07-03T00:00:40.000Z,914.01
2018-07-03T00:01:39.986Z,913.98
2018-07-03T00:02:39.948Z,913.99
2018-07-03T00:03:39.954Z,914.00
2018-07-03T00:04:39.881Z,914.00
2018-07-03T00:05:39.850Z,914.00
2018-07-03T00:06:39.825Z,914.05
2018-07-03T00:07:39.791Z,914.02
2018-07-03T00:08:39.766Z,914.06
2018-07-03T00:09:39.738Z,914.08
2018-07-03T00:10:39.698Z,914.09
2018-07-03T00:11:39.818Z,914.09
2018-07-03T00:12:39.639Z,914.11
2018-07-03T00:13:39.642Z,914.07
2018-07-03T00:14:39.802Z,914.08
2018-07-03T00:15:39.557Z,914.14
2018-07-03T00:16:39.523Z,914.11
2018-07-03T00:17:39.641Z,914.11
2018-07-03T00:18:39.467Z,914.14
2018-07-03T00:19:39.439Z,914.16
2018-07-03T00:20:39.401Z,914.16
2018-07-03T00:21:39.364Z,914.20
2018-07-03T00:22:39.346Z,914.22
2018-07-03T00:23:39.326Z,914.20
2018-07-03T00:24:39.291Z,914.22
2018-07-03T00:25:39.235Z,914.25
2018-07-03T00:26:39.233Z,914.24
2018-07-03T00:27:39.172Z,914.25
2018-07-03T00:28:39.149Z,914.27
2018-07-03T00:29:39.115Z,914.27
2018-07-03T00:30:39.094Z,914.31
2018-07-03T00:31:39.057Z,914.28
2018-07-03T00:32:39.072Z,914.29
2018-07-03T00:33:38.990Z,914.31
2018-07-03T00:34:38.959Z,914.31
2018-07-03T00:35:38.953Z,914.34
2018-07-03T00:36:38.969Z,914.35
2018-07-03T00:37:38.865Z,914.34
2018-07-03T00:38:38.832Z,914.35
2018-07-03T00:39:38.823Z,914.36
2018-07-03T00:40:38.773Z,914.35
2018-07-03T00:41:38.772Z,914.38
2018-07-03T00:42:38.727Z,914.35
2018-07-03T00:43:39.101Z,914.35
2018-07-03T00:44:38.677Z,914.36
2018-07-03T00:45:38.621Z,914.40
2018-07-03T00:46:38.604Z,914.41
2018-07-03T00:47:38.565Z,914.40
2018-07-03T00:48:38.530Z,914.39
2018-07-03T00:49:38.604Z,914.37
2018-07-03T00:50:38.473Z,914.45
2018-07-03T00:51:38.442Z,914.37
2018-07-03T00:52:38.408Z,914.43
2018-07-03T00:53:38.379Z,914.38
2018-07-03T00:54:38.378Z,914.39
2018-07-03T00:55:38.311Z,914.42
2018-07-03T00:56:38.289Z,914.41
2018-07-03T00:57:38.279Z,914.43
2018-07-03T00:58:38.216Z,914.44
2018-07-03T00:59:38.192Z,914.44
2018-07-03T01:00:38.271Z,914.45
2018-07-03T01:01:38.121Z,914.46
2018-07-03T01:02:38.096Z,914.48
2018-07-03T01:03:38.065Z,914.50
2018-07-03T01:04:38.048Z,914.44
2018-07-03T01:05:38.004Z,914.46
2018-07-03T01:06:38.101Z,914.44
2018-07-03T01:07:37.943Z,914.49
2018-07-03T01:08:37.937Z,914.48
2018-07-03T01:09:37.875Z,914.50
2018-07-03T01:10:37.864Z,914.46
2018-07-03T01:11:37.815Z,914.47
2018-07-03T01:12:37.795Z,914.47
2018-07-03T01:13:37.759Z,914.48
2018-07-03T01:14:37.730Z,914.50
2018-07-03T01:15:37.939Z,914.51
2018-07-03T01:16:37.666Z,914.51
2018-07-03T01:17:37.622Z,914.51
2018-07-03T01:18:37.619Z,914.51
2018-07-03T01:19:37.572Z,914.53
2018-07-03T01:20:37.547Z,914.51
2018-07-03T01:21:37.610Z,914.52
2018-07-03T01:22:37.481Z,914.54
2018-07-03T01:23:37.479Z,914.54
2018-07-03T01:24:37.431Z,914.55
2018-07-03T01:25:37.385Z,914.56
2018-07-03T01:26:37.363Z,914.59
2018-07-03T01:27:37.327Z,914.63
2018-07-03T01:28:37.288Z,914.63
2018-07-03T01:29:37.258Z,914.61
2018-07-03T01:30:37.317Z,914.58
2018-07-03T01:31:37.195Z,914.57
2018-07-03T01:32:37.165Z,914.58
2018-07-03T01:33:37.128Z,914.55
2018-07-03T01:34:37.103Z,914.61
2018-07-03T01:35:37.074Z,914.58
2018-07-03T01:36:37.042Z,914.59
2018-07-03T01:37:37.008Z,914.63
2018-07-03T01:38:36.977Z,914.63
2018-07-03T01:39:36.944Z,914.59
2018-07-03T01:40:36.918Z,914.60
2018-07-03T01:41:36.891Z,914.66
2018-07-03T01:42:36.869Z,914.64
2018-07-03T01:43:36.827Z,914.65
2018-07-03T01:44:36.792Z,914.64
2018-07-03T01:45:36.757Z,914.64
2018-07-03T01:46:36.729Z,914.67
2018-07-03T01:47:37.050Z,914.64
2018-07-03T01:48:36.662Z,914.69
2018-07-03T01:49:36.636Z,914.67
2018-07-03T01:50:36.641Z,914.69
2018-07-03T01:51:36.590Z,914.68
2018-07-03T01:52:36.536Z,914.70
2018-07-03T01:53:36.629Z,914.67
2018-07-03T01:54:36.472Z,914.68
2018-07-03T01:55:36.459Z,914.69
2018-07-03T01:56:36.421Z,914.66
2018-07-03T01:57:36.403Z,914.66
2018-07-03T01:58:36.366Z,914.65
2018-07-03T01:59:36.329Z,914.65
2018-07-03T02:00:36.304Z,914.66
2018-07-03T02:01:36.259Z,914.71
2018-07-03T02:02:36.226Z,914.67
2018-07-03T02:03:36.206Z,914.70
2018-07-03T02:04:36.170Z,914.67
2018-07-03T02:05:36.141Z,914.67
2018-07-03T02:06:36.152Z,914.65
2018-07-03T02:07:36.081Z,914.62
2018-07-03T02:08:36.044Z,914.64
2018-07-03T02:09:36.019Z,914.61
2018-07-03T02:10:35.980Z,914.60
2018-07-03T02:11:35.944Z,914.61
2018-07-03T02:12:35.915Z,914.62
2018-07-03T02:13:35.878Z,914.64
2018-07-03T02:14:35.873Z,914.64
2018-07-03T02:15:35.821Z,914.64
2018-07-03T02:16:35.809Z,914.63
2018-07-03T02:17:35.756Z,914.63
2018-07-03T02:18:35.745Z,914.66
2018-07-03T02:19:35.940Z,914.67
2018-07-03T02:20:35.735Z,914.66
2018-07-03T02:21:35.645Z,914.67
2018-07-03T02:22:35.608Z,914.66
2018-07-03T02:23:35.562Z,914.63
2018-07-03T02:24:35.532Z,914.62
2018-07-03T02:25:35.601Z,914.66
2018-07-03T02:26:35.504Z,914.66
2018-07-03T02:27:35.446Z,914.66
2018-07-03T02:28:35.416Z,914.63
2018-07-03T02:29:35.395Z,914.66
2018-07-03T02:30:35.371Z,914.60
2018-07-03T02:31:35.310Z,914.64
2018-07-03T02:32:35.281Z,914.61
2018-07-03T02:33:35.281Z,914.62
2018-07-03T02:34:35.218Z,914.59
2018-07-03T02:36:35.157Z,914.63
2018-07-03T02:37:35.125Z,914.61
2018-07-03T02:38:35.088Z,914.60
2018-07-03T02:39:35.056Z,914.64
2018-07-03T02:40:35.033Z,914.65
2018-07-03T02:41:35.006Z,914.62
2018-07-03T02:42:34.966Z,914.59
2018-07-03T02:43:34.954Z,914.61
2018-07-03T02:44:34.898Z,914.60
2018-07-03T02:45:34.867Z,914.61
2018-07-03T02:46:34.844Z,914.60
2018-07-03T02:47:34.838Z,914.63
2018-07-03T02:48:34.781Z,914.63
2018-07-03T02:49:34.754Z,914.64
2018-07-03T02:50:34.711Z,914.65
2018-07-03T02:51:34.825Z,914.63
2018-07-03T02:52:34.667Z,914.59
2018-07-03T02:53:34.615Z,914.59
2018-07-03T02:54:34.585Z,914.61
2018-07-03T02:55:34.555Z,914.58
2018-07-03T02:56:34.525Z,914.61
2018-07-03T02:57:34.695Z,914.59
2018-07-03T02:58:34.462Z,914.61
2018-07-03T02:59:34.422Z,914.62
2018-07-03T03:00:34.401Z,914.58
2018-07-03T03:01:34.357Z,914.59
2018-07-03T03:02:34.328Z,914.61
2018-07-03T03:03:34.301Z,914.62
2018-07-03T03:04:34.262Z,914.62
2018-07-03T03:05:34.233Z,914.65
2018-07-03T03:06:34.202Z,914.67
2018-07-03T03:07:34.178Z,914.64
2018-07-03T03:08:34.140Z,914.64
2018-07-03T03:09:34.108Z,914.64
2018-07-03T03:10:34.073Z,914.67
2018-07-03T03:11:34.042Z,914.64
2018-07-03T03:12:34.016Z,914.63
2018-07-03T03:13:34.067Z,914.67
2018-07-03T03:14:33.952Z,914.63
2018-07-03T03:15:33.922Z,914.63
2018-07-03T03:16:33.885Z,914.67
2018-07-03T03:17:33.854Z,914.62
2018-07-03T03:18:33.827Z,914.61
2018-07-03T03:19:33.787Z,914.60
2018-07-03T03:20:33.758Z,914.60
2018-07-03T03:21:33.814Z,914.59
2018-07-03T03:22:33.697Z,914.58
2018-07-03T03:23:33.764Z,914.57
2018-07-03T03:24:33.630Z,914.53
2018-07-03T03:25:33.595Z,914.52
2018-07-03T03:26:33.564Z,914.56
2018-07-03T03:27:33.529Z,914.54
2018-07-03T03:28:33.500Z,914.55
2018-07-03T03:29:33.470Z,914.54
2018-07-03T03:30:33.434Z,914.54
2018-07-03T03:31:33.408Z,914.57
2018-07-03T03:32:33.369Z,914.56
2018-07-03T03:33:33.391Z,914.56
2018-07-03T03:34:33.307Z,914.57
2018-07-03T03:35:33.270Z,914.54
2018-07-03T03:36:33.240Z,914.53
2018-07-03T03:37:33.217Z,914.57
2018-07-03T03:38:33.183Z,914.57
2018-07-03T03:39:33.150Z,914.63
2018-07-03T03:40:33.119Z,914.57
2018-07-03T03:41:33.088Z,914.61
2018-07-03T03:42:33.048Z,914.56
2018-07-03T03:43:33.022Z,914.55
2018-07-03T03:44:32.987Z,914.53
2018-07-03T03:45:32.954Z,914.58
2018-07-03T03:46:32.920Z,914.57
2018-07-03T03:47:32.896Z,914.59
2018-07-03T03:48:32.858Z,914.59
2018-07-03T03:49:32.827Z,914.61
2018-07-03T03:50:32.793Z,914.60
2018-07-03T03:51:32.760Z,914.53
2018-07-03T03:52:32.728Z,914.58
2018-07-03T03:53:32.701Z,914.53
2018-07-03T03:54:33.021Z,914.53
2018-07-03T03:55:32.634Z,914.53
2018-07-03T03:56:32.612Z,914.54
2018-07-03T03:57:32.575Z,914.55
2018-07-03T03:58:32.534Z,914.60
2018-07-03T03:59:32.505Z,914.53
2018-07-03T04:00:32.579Z,914.54
2018-07-03T04:01:32.446Z,914.53
2018-07-03T04:02:32.409Z,914.55
2018-07-03T04:03:32.383Z,914.54
2018-07-03T04:04:32.350Z,914.52
2018-07-03T04:05:32.325Z,914.55
2018-07-03T04:06:32.278Z,914.56
2018-07-03T04:07:32.247Z,914.53
2018-07-03T04:08:32.217Z,914.52
2018-07-03T04:09:32.185Z,914.53
2018-07-03T04:10:32.157Z,914.50
2018-07-03T04:11:32.124Z,914.53
2018-07-03T04:12:32.086Z,914.50
2018-07-03T04:13:32.054Z,914.51
2018-07-03T04:14:32.022Z,914.50
2018-07-03T04:15:31.990Z,914.52
2018-07-03T04:16:32.008Z,914.47
2018-07-03T04:17:31.937Z,914.51
2018-07-03T04:18:31.902Z,914.45
2018-07-03T04:19:31.863Z,914.45
2018-07-03T04:20:31.841Z,914.45
2018-07-03T04:21:31.806Z,914.44
2018-07-03T04:22:31.767Z,914.44
2018-07-03T04:23:31.740Z,914.41
2018-07-03T04:24:31.711Z,914.40
2018-07-03T04:25:31.672Z,914.39
2018-07-03T04:26:31.638Z,914.37
2018-07-03T04:27:31.603Z,914.39
2018-07-03T04:28:31.592Z,914.35
2018-07-03T04:29:31.545Z,914.35
2018-07-03T04:30:31.507Z,914.34
2018-07-03T04:31:31.481Z,914.31
2018-07-03T04:32:31.458Z,914.35
2018-07-03T04:33:31.408Z,914.32
2018-07-03T04:34:31.379Z,914.32
2018-07-03T04:35:31.351Z,914.30
2018-07-03T04:36:31.316Z,914.28
2018-07-03T04:37:31.283Z,914.31
2018-07-03T04:38:31.254Z,914.28
2018-07-03T04:39:31.219Z,914.26
2018-07-03T04:40:31.197Z,914.26
2018-07-03T04:41:31.218Z,914.28
2018-07-03T04:42:31.123Z,914.25
2018-07-03T04:43:31.087Z,914.25
2018-07-03T04:44:31.062Z,914.26
2018-07-03T04:45:31.027Z,914.22
2018-07-03T04:46:30.993Z,914.20
2018-07-03T04:47:30.958Z,914.21
2018-07-03T04:48:30.927Z,914.22
2018-07-03T04:49:30.892Z,914.24
2018-07-03T04:50:30.875Z,914.21
2018-07-03T04:51:30.857Z,914.22
2018-07-03T04:52:30.799Z,914.23
2018-07-03T04:53:30.821Z,914.22
2018-07-03T04:54:30.731Z,914.20
2018-07-03T04:55:30.700Z,914.18
2018-07-03T04:56:30.667Z,914.18
2018-07-03T04:57:30.634Z,914.18
2018-07-03T04:58:30.603Z,914.18
2018-07-03T04:59:30.575Z,914.19
2018-07-03T05:00:30.547Z,914.18
2018-07-03T05:01:30.506Z,914.20
2018-07-03T05:02:30.471Z,914.19
2018-07-03T05:03:30.446Z,914.20
2018-07-03T05:04:30.409Z,914.19
2018-07-03T05:05:30.381Z,914.17
2018-07-03T05:06:30.351Z,914.15
2018-07-03T05:07:30.308Z,914.10
2018-07-03T05:08:30.282Z,914.12
2018-07-03T05:09:30.248Z,914.10
2018-07-03T05:10:30.219Z,914.09
2018-07-03T05:11:30.181Z,914.11
2018-07-03T05:12:30.151Z,914.10
2018-07-03T05:13:30.119Z,914.07
2018-07-03T05:14:30.086Z,914.09
2018-07-03T05:15:30.055Z,914.07
2018-07-03T05:16:30.020Z,914.06
2018-07-03T05:17:30.043Z,914.06
2018-07-03T05:18:29.953Z,914.05
2018-07-03T05:19:29.924Z,914.02
2018-07-03T05:20:29.890Z,914.01
2018-07-03T05:21:29.859Z,914.02
2018-07-03T05:22:29.825Z,914.04
2018-07-03T05:23:29.798Z,913.97
2018-07-03T05:24:29.958Z,914.00
2018-07-03T05:25:29.728Z,914.00
2018-07-03T05:26:29.699Z,914.00
2018-07-03T05:27:29.677Z,913.98
2018-07-03T05:28:29.630Z,913.97
2018-07-03T05:29:29.603Z,913.97
2018-07-03T05:30:29.765Z,913.95
2018-07-03T05:31:29.546Z,913.96
2018-07-03T05:32:29.507Z,913.95
2018-07-03T05:33:29.470Z,913.89
2018-07-03T05:34:29.463Z,913.90
2018-07-03T05:35:29.407Z,913.90
2018-07-03T05:36:29.382Z,913.90
2018-07-03T05:37:29.342Z,913.89
2018-07-03T05:38:29.311Z,913.91
2018-07-03T05:39:29.275Z,913.91
2018-07-03T05:40:29.238Z,913.90
2018-07-03T05:41:29.208Z,913.92
2018-07-03T05:42:29.175Z,913.87
2018-07-03T05:43:29.160Z,913.83
2018-07-03T05:44:29.113Z,913.84
2018-07-03T05:45:29.078Z,913.85
2018-07-03T05:46:29.159Z,913.86
2018-07-03T05:47:29.013Z,913.82
2018-07-03T05:48:28.978Z,913.86
2018-07-03T05:49:28.947Z,913.80
2018-07-03T05:50:28.911Z,913.83
2018-07-03T05:51:28.879Z,913.80
2018-07-03T05:52:28.847Z,913.78
2018-07-03T05:53:28.819Z,913.77
2018-07-03T05:54:28.780Z,913.80
2018-07-03T05:55:28.753Z,913.76
2018-07-03T05:56:28.873Z,913.76
2018-07-03T05:57:28.684Z,913.77
2018-07-03T05:58:28.652Z,913.77
2018-07-03T05:59:28.619Z,913.76
2018-07-03T06:00:28.589Z,913.75
2018-07-03T06:01:28.551Z,913.76
2018-07-03T06:02:28.519Z,913.73
2018-07-03T06:03:28.489Z,913.74
2018-07-03T06:04:28.458Z,913.72
2018-07-03T06:05:28.431Z,913.71
2018-07-03T06:06:28.639Z,913.73
2018-07-03T06:07:28.363Z,913.74
2018-07-03T06:08:28.331Z,913.72
2018-07-03T06:09:28.300Z,913.74
2018-07-03T06:10:28.259Z,913.74
2018-07-03T06:11:28.226Z,913.75
2018-07-03T06:12:28.195Z,913.76
2018-07-03T06:13:28.160Z,913.73
2018-07-03T06:14:28.125Z,913.71
2018-07-03T06:15:28.104Z,913.70
2018-07-03T06:16:28.060Z,913.70
2018-07-03T06:17:28.029Z,913.73
2018-07-03T06:18:27.995Z,913.70
2018-07-03T06:19:27.964Z,913.75
2018-07-03T06:20:27.935Z,913.75
2018-07-03T06:21:27.896Z,913.74
2018-07-03T06:22:28.022Z,913.76
2018-07-03T06:23:27.834Z,913.77
2018-07-03T06:24:27.799Z,913.74
2018-07-03T06:25:27.769Z,913.74
2018-07-03T06:26:27.731Z,913.72
2018-07-03T06:27:27.703Z,913.73
2018-07-03T06:28:27.666Z,913.75
2018-07-03T06:29:27.632Z,913.75
2018-07-03T06:30:27.601Z,913.72
2018-07-03T06:31:27.566Z,913.73
2018-07-03T06:32:27.539Z,913.68
2018-07-03T06:33:27.501Z,913.71
2018-07-03T06:34:27.468Z,913.72
2018-07-03T06:35:27.440Z,913.70
2018-07-03T06:36:27.405Z,913.69
2018-07-03T06:37:27.463Z,913.67
2018-07-03T06:38:27.357Z,913.64
2018-07-03T06:39:27.305Z,913.66
2018-07-03T06:40:27.275Z,913.65
2018-07-03T06:41:27.239Z,913.67
2018-07-03T06:42:27.202Z,913.68
2018-07-03T06:43:27.174Z,913.68
2018-07-03T06:44:27.140Z,913.68
2018-07-03T06:45:27.109Z,913.67
2018-07-03T06:46:27.073Z,913.69
2018-07-03T06:47:27.259Z,913.70
2018-07-03T06:48:27.006Z,913.66
2018-07-03T06:49:26.976Z,913.67
2018-07-03T06:50:26.940Z,913.69
2018-07-03T06:51:27.039Z,913.64
2018-07-03T06:52:26.883Z,913.68
2018-07-03T06:53:26.847Z,913.70
2018-07-03T06:54:27.058Z,913.73
2018-07-03T06:55:26.782Z,913.72
2018-07-03T06:56:26.744Z,913.76
2018-07-03T06:57:26.713Z,913.77
2018-07-03T06:58:26.678Z,913.78
2018-07-03T06:59:26.673Z,913.77
2018-07-03T07:00:26.711Z,913.79
2018-07-03T07:01:26.579Z,913.80
2018-07-03T07:02:26.547Z,913.79
2018-07-03T07:03:26.512Z,913.80
2018-07-03T07:04:26.479Z,913.82
2018-07-03T07:05:26.448Z,913.84
2018-07-03T07:06:26.413Z,913.84
2018-07-03T07:07:26.387Z,913.84
2018-07-03T07:08:26.358Z,913.80
2018-07-03T07:09:26.360Z,913.86
2018-07-03T07:10:26.289Z,913.86
2018-07-03T07:11:26.247Z,913.84
2018-07-03T07:12:26.225Z,913.83
2018-07-03T07:13:26.186Z,913.84
2018-07-03T07:14:26.149Z,913.83
2018-07-03T07:15:26.123Z,913.83
2018-07-03T07:16:26.083Z,913.83
2018-07-03T07:17:26.049Z,913.83
2018-07-03T07:18:26.023Z,913.86
2018-07-03T07:19:25.988Z,913.86
2018-07-03T07:21:25.917Z,913.87
2018-07-03T07:22:25.896Z,913.88
2018-07-03T07:23:25.856Z,913.90
2018-07-03T07:24:25.820Z,913.92
2018-07-03T07:25:25.785Z,913.89
2018-07-03T07:26:25.753Z,913.94
2018-07-03T07:27:25.722Z,913.92
2018-07-03T07:28:25.694Z,913.95
2018-07-03T07:29:25.653Z,913.92
2018-07-03T07:31:25.590Z,913.92
2018-07-03T07:32:25.560Z,913.90
2018-07-03T07:33:25.520Z,913.97
2018-07-03T07:34:25.505Z,913.93
2018-07-03T07:35:25.453Z,913.91
2018-07-03T07:36:25.422Z,913.93
2018-07-03T07:37:25.387Z,913.94
2018-07-03T07:38:25.365Z,913.93
2018-07-03T07:39:25.325Z,913.95
2018-07-03T07:40:25.289Z,913.95
2018-07-03T07:41:25.261Z,913.94
2018-07-03T07:42:25.221Z,913.94
2018-07-03T07:43:25.191Z,913.95
2018-07-03T07:44:25.158Z,913.93
2018-07-03T07:45:25.123Z,913.94
2018-07-03T07:47:25.115Z,913.95
2018-07-03T07:48:25.033Z,913.94
2018-07-03T07:49:24.995Z,913.95
2018-07-03T07:50:25.006Z,913.95
2018-07-03T07:51:24.927Z,913.98
2018-07-03T07:52:24.991Z,913.95
2018-07-03T07:53:24.866Z,913.94
2018-07-03T07:54:24.829Z,913.93
2018-07-03T07:55:24.792Z,913.94
2018-07-03T07:56:24.804Z,913.95
2018-07-03T07:57:24.747Z,913.95
2018-07-03T07:58:25.029Z,913.97
2018-07-03T07:59:24.659Z,913.96
2018-07-03T08:00:24.627Z,913.99
2018-07-03T08:01:24.591Z,914.01
2018-07-03T08:02:24.558Z,914.03
2018-07-03T08:03:24.527Z,914.02
2018-07-03T08:04:24.500Z,914.02
2018-07-03T08:05:24.462Z,914.02
2018-07-03T08:06:24.426Z,914.00
2018-07-03T08:07:24.393Z,913.97
2018-07-03T08:08:24.360Z,914.01
2018-07-03T08:09:24.329Z,914.02
2018-07-03T08:10:24.294Z,914.04
2018-07-03T08:11:24.272Z,914.06
2018-07-03T08:12:24.228Z,914.04
2018-07-03T08:13:24.274Z,914.06
2018-07-03T08:14:24.181Z,914.06
2018-07-03T08:15:24.130Z,914.04
2018-07-03T08:16:24.097Z,914.05
2018-07-03T08:17:24.063Z,914.01
2018-07-03T08:18:24.031Z,914.03
2018-07-03T08:19:24.000Z,914.04
2018-07-03T08:20:23.967Z,914.04
2018-07-03T08:21:23.931Z,914.04
2018-07-03T08:22:23.895Z,914.04
2018-07-03T08:23:23.863Z,914.08
2018-07-03T08:24:23.831Z,914.04
2018-07-03T08:25:23.798Z,914.01
2018-07-03T08:26:23.870Z,914.01
2018-07-03T08:27:23.726Z,914.05
2018-07-03T08:28:23.695Z,914.02
2018-07-03T08:29:23.662Z,914.04
2018-07-03T08:30:23.633Z,914.07
2018-07-03T08:32:23.597Z,914.08
2018-07-03T08:33:23.530Z,914.06
2018-07-03T08:34:23.501Z,914.02
2018-07-03T08:35:23.467Z,914.02
2018-07-03T08:36:23.437Z,914.04
2018-07-03T08:37:23.396Z,914.03
2018-07-03T08:38:23.365Z,914.02
2018-07-03T08:39:23.332Z,914.02
2018-07-03T08:40:23.296Z,914.04
2018-07-03T08:41:23.264Z,914.03
2018-07-03T08:42:23.261Z,914.07
2018-07-03T08:43:23.197Z,914.07
2018-07-03T08:44:23.166Z,914.09
2018-07-03T08:45:23.133Z,914.04
2018-07-03T08:46:23.103Z,914.03
2018-07-03T08:47:23.071Z,914.04
2018-07-03T08:48:23.090Z,914.05
2018-07-03T08:49:22.996Z,914.08
2018-07-03T08:50:22.965Z,914.08
2018-07-03T08:51:22.936Z,914.08
2018-07-03T08:52:22.901Z,914.08
2018-07-03T08:53:22.971Z,914.10
2018-07-03T08:54:22.834Z,914.16
2018-07-03T08:55:22.801Z,914.13
2018-07-03T08:56:22.768Z,914.14
2018-07-03T08:57:22.757Z,914.11
2018-07-03T08:58:22.778Z,914.14
2018-07-03T08:59:22.969Z,914.15
2018-07-03T09:00:22.640Z,914.15
2018-07-03T09:01:22.600Z,914.19
2018-07-03T09:02:22.570Z,914.18
2018-07-03T09:03:22.537Z,914.22
2018-07-03T09:04:22.751Z,914.24
2018-07-03T09:05:22.468Z,914.19
2018-07-03T09:06:22.439Z,914.25
2018-07-03T09:07:22.403Z,914.28
2018-07-03T09:08:22.379Z,914.29
2018-07-03T09:09:22.335Z,914.29
2018-07-03T09:10:22.302Z,914.33
2018-07-03T09:11:22.272Z,914.33
2018-07-03T09:12:22.238Z,914.32
2018-07-03T09:13:22.202Z,914.36
2018-07-03T09:14:22.174Z,914.34
2018-07-03T09:15:22.141Z,914.33
2018-07-03T09:16:22.103Z,914.31
2018-07-03T09:17:22.069Z,914.38
2018-07-03T09:18:22.039Z,914.35
2018-07-03T09:19:22.003Z,914.38
2018-07-03T09:20:21.971Z,914.37
2018-07-03T09:21:21.940Z,914.39
2018-07-03T09:22:21.904Z,914.46
2018-07-03T09:23:21.872Z,914.40
2018-07-03T09:24:21.854Z,914.45
2018-07-03T09:25:21.822Z,914.44
2018-07-03T09:26:21.770Z,914.44
2018-07-03T09:27:21.752Z,914.47
2018-07-03T09:28:21.728Z,914.42
2018-07-03T09:29:21.671Z,914.48
2018-07-03T09:30:21.646Z,914.48
2018-07-03T09:31:21.607Z,914.48
2018-07-03T09:32:21.573Z,914.48
2018-07-03T09:33:21.537Z,914.51
2018-07-03T09:34:21.503Z,914.50
2018-07-03T09:35:21.676Z,914.56
2018-07-03T09:36:21.472Z,914.60
2018-07-03T09:37:21.404Z,914.57
2018-07-03T09:38:21.410Z,914.56
2018-07-03T09:39:21.347Z,914.56
2018-07-03T09:40:21.305Z,914.55
2018-07-03T09:41:21.273Z,914.55
2018-07-03T09:42:21.242Z,914.57
2018-07-03T09:43:21.207Z,914.58
2018-07-03T09:44:21.178Z,914.60
2018-07-03T09:45:21.143Z,914.60
2018-07-03T09:46:21.103Z,914.62
2018-07-03T09:47:21.075Z,914.64
2018-07-03T09:48:21.053Z,914.59
2018-07-03T09:49:21.005Z,914.66
2018-07-03T09:50:20.973Z,914.63
2018-07-03T09:51:21.140Z,914.66
2018-07-03T09:52:20.912Z,914.67
2018-07-03T09:53:20.873Z,914.68
2018-07-03T09:54:20.845Z,914.70
2018-07-03T09:55:20.810Z,914.68
2018-07-03T09:56:20.775Z,914.70
2018-07-03T09:57:20.852Z,914.70
2018-07-03T09:58:20.712Z,914.69
2018-07-03T09:59:20.707Z,914.69
2018-07-03T10:00:20.647Z,914.72
2018-07-03T10:01:20.613Z,914.74
2018-07-03T10:02:20.574Z,914.82
2018-07-03T10:03:20.545Z,914.75
2018-07-03T10:04:20.567Z,914.74
2018-07-03T10:05:20.482Z,914.73
2018-07-03T10:06:20.444Z,914.80
2018-07-03T10:07:20.409Z,914.81
2018-07-03T10:08:20.373Z,914.79
2018-07-03T10:09:20.351Z,914.82
2018-07-03T10:10:20.315Z,914.79
2018-07-03T10:11:20.277Z,914.80
2018-07-03T10:12:20.256Z,914.80
2018-07-03T10:13:20.219Z,914.76
2018-07-03T10:14:20.186Z,914.75
2018-07-03T10:15:20.143Z,914.79
2018-07-03T10:16:20.110Z,914.79
2018-07-03T10:17:20.080Z,914.77
2018-07-03T10:18:20.046Z,914.80
2018-07-03T10:19:20.013Z,914.85
2018-07-03T10:20:19.981Z,914.91
2018-07-03T10:21:19.950Z,914.90
2018-07-03T10:22:19.911Z,914.89
2018-07-03T10:23:19.884Z,914.92
2018-07-03T10:24:19.848Z,914.92
2018-07-03T10:25:19.816Z,914.93
2018-07-03T10:26:19.781Z,914.95
2018-07-03T10:27:19.754Z,914.92
2018-07-03T10:28:19.715Z,914.92
2018-07-03T10:29:19.682Z,914.94
2018-07-03T10:30:19.672Z,914.97
2018-07-03T10:31:19.655Z,915.01
2018-07-03T10:32:19.585Z,915.00
2018-07-03T10:33:19.564Z,915.03
2018-07-03T10:34:19.676Z,914.99
2018-07-03T10:35:19.490Z,915.00
2018-07-03T10:36:19.467Z,915.00
2018-07-03T10:37:19.423Z,915.02
2018-07-03T10:38:19.394Z,915.03
2018-07-03T10:39:19.368Z,915.01
2018-07-03T10:41:19.292Z,915.00
2018-07-03T10:42:19.264Z,915.04
2018-07-03T10:43:19.236Z,915.05
2018-07-03T10:44:19.205Z,915.06
2018-07-03T10:45:19.164Z,915.05
2018-07-03T10:46:19.133Z,915.12
2018-07-03T10:47:19.101Z,915.08
2018-07-03T10:48:19.077Z,915.11
2018-07-03T10:49:19.063Z,915.10
2018-07-03T10:50:19.180Z,915.09
2018-07-03T10:51:18.970Z,915.09
2018-07-03T10:52:18.939Z,915.17
2018-07-03T10:53:18.909Z,915.17
2018-07-03T10:54:18.875Z,915.20
2018-07-03T10:55:18.844Z,915.18
2018-07-03T10:56:19.161Z,915.19
2018-07-03T10:57:18.781Z,915.25
2018-07-03T10:58:18.744Z,915.23
2018-07-03T10:59:18.725Z,915.20
2018-07-03T11:00:18.683Z,915.23
2018-07-03T11:01:18.651Z,915.19
2018-07-03T11:02:18.848Z,915.20
2018-07-03T11:03:18.595Z,915.19
2018-07-03T11:04:18.575Z,915.26
2018-07-03T11:05:18.521Z,915.28
2018-07-03T11:06:18.492Z,915.25
2018-07-03T11:07:18.466Z,915.31
2018-07-03T11:08:18.430Z,915.32
2018-07-03T11:09:18.395Z,915.34
2018-07-03T11:10:18.365Z,915.37
2018-07-03T11:11:18.334Z,915.37
2018-07-03T11:12:18.303Z,915.38
2018-07-03T11:13:18.272Z,915.41
2018-07-03T11:14:18.240Z,915.42
2018-07-03T11:15:18.208Z,915.43
2018-07-03T11:16:18.178Z,915.43
2018-07-03T11:17:18.143Z,915.50
2018-07-03T11:18:18.109Z,915.50
2018-07-03T11:19:18.081Z,915.55
2018-07-03T11:20:18.090Z,915.54
2018-07-03T11:21:18.020Z,915.57
2018-07-03T11:22:18.008Z,915.56
2018-07-03T11:23:18.213Z,915.59
2018-07-03T11:24:17.923Z,915.63
2018-07-03T11:25:17.896Z,915.61
2018-07-03T11:26:17.890Z,915.67
2018-07-03T11:27:17.836Z,915.66
2018-07-03T11:28:17.797Z,915.68
2018-07-03T11:29:18.016Z,915.73
2018-07-03T11:30:17.744Z,915.75
2018-07-03T11:31:17.799Z,915.76
2018-07-03T11:32:17.704Z,915.75
2018-07-03T11:33:17.642Z,915.79
2018-07-03T11:34:17.616Z,915.82
2018-07-03T11:35:17.589Z,915.79
2018-07-03T11:36:17.555Z,915.83
2018-07-03T11:37:17.524Z,915.82
2018-07-03T11:38:17.489Z,915.82
2018-07-03T11:39:17.467Z,915.83
2018-07-03T11:40:17.444Z,915.83
2018-07-03T11:41:17.409Z,915.83
2018-07-03T11:42:17.368Z,915.81
2018-07-03T11:43:17.395Z,915.83
2018-07-03T11:44:17.314Z,915.86
2018-07-03T11:45:17.275Z,915.86
2018-07-03T11:46:17.240Z,915.84
2018-07-03T11:47:17.237Z,915.82
2018-07-03T11:48:17.193Z,915.85
2018-07-03T11:49:17.156Z,915.86
2018-07-03T11:50:17.122Z,915.83
2018-07-03T11:51:17.091Z,915.85
2018-07-03T11:52:17.064Z,915.86
2018-07-03T11:53:17.029Z,915.85
2018-07-03T11:54:16.999Z,915.88
2018-07-03T11:55:17.176Z,915.88
2018-07-03T11:56:16.944Z,915.91
2018-07-03T11:57:16.906Z,915.92
2018-07-03T11:58:16.882Z,915.92
2018-07-03T11:59:16.853Z,915.88
2018-07-03T12:00:16.825Z,915.89
2018-07-03T12:01:17.041Z,915.88
2018-07-03T12:02:16.759Z,915.85
2018-07-03T12:03:16.733Z,915.81
2018-07-03T12:04:16.739Z,915.84
2018-07-03T12:05:16.663Z,915.88
2018-07-03T12:06:16.639Z,915.86
2018-07-03T12:07:16.610Z,915.84
2018-07-03T12:08:16.576Z,915.84
2018-07-03T12:09:16.546Z,916.43
2018-07-03T12:10:16.519Z,916.46
2018-07-03T12:11:16.543Z,916.51
2018-07-03T12:12:16.464Z,916.45
2018-07-03T12:13:16.438Z,916.44
2018-07-03T12:14:16.395Z,916.49
2018-07-03T12:15:16.369Z,916.46
2018-07-03T12:16:16.338Z,916.35
2018-07-03T12:17:16.378Z,916.28
2018-07-03T12:18:16.293Z,916.22
2018-07-03T12:19:16.250Z,916.23
2018-07-03T12:20:16.215Z,916.12
2018-07-03T12:21:16.195Z,916.07
2018-07-03T12:22:16.158Z,916.07
2018-07-03T12:23:16.136Z,916.12
2018-07-03T12:24:16.110Z,916.19
2018-07-03T12:25:16.089Z,916.16
2018-07-03T12:26:16.053Z,916.08
2018-07-03T12:27:16.025Z,916.03
2018-07-03T12:28:16.150Z,916.02
2018-07-03T12:29:15.987Z,916.01
2018-07-03T12:30:15.938Z,916.02
2018-07-03T12:31:15.909Z,916.02
2018-07-03T12:32:15.880Z,916.06
2018-07-03T12:33:16.699Z,916.06
2018-07-03T12:34:16.385Z,916.14